Weather at Kirkenes Airport, Høybuktmoen

Public forecast

Using degrees Celsius for public forecast. Weather courtesy of forecast.io.

Current aviation weather report (METAR) for Kirkenes Airport, Høybuktmoen

Report is more than 6 hours old.

2022/11/14 15:20 (retrieved 2 years ago)

ENKR 141520Z 17003KT 9999 FEW018 M06/M07 Q1019 RMK WIND 731FT 28005KT

Closest aviation forecast (TAF) to Kirkenes Airport, Høybuktmoen

Forecast is more than 12 hours old.

Closest forecast is Murmansk Airport, 83.1 nm (153.9 km) SE.

2023/02/22 21:21 (retrieved 1 year ago)

TAF ULMM 221950Z 2221/2321 17003MPS 6000 SCT016 TXM14/2318Z TNM31/2300Z TEMPO 2221/2308 0400 FZFG VV002